createdAt,value
2022-10-14T00:02:10.882Z,100906.06
2022-10-14T00:04:56.453Z,100897.50
2022-10-14T00:07:41.414Z,100898.22
2022-10-14T00:10:26.778Z,100897.34
2022-10-14T00:13:11.732Z,100901.63
2022-10-14T00:15:56.956Z,100897.31
2022-10-14T00:18:42.370Z,100894.72
2022-10-14T00:21:28.672Z,100893.91
2022-10-14T00:24:14.960Z,100902.44
2022-10-14T00:26:59.881Z,100898.97
2022-10-14T00:29:44.764Z,100899.88
2022-10-14T00:32:30.339Z,100899.00
2022-10-14T00:35:15.644Z,100895.50
2022-10-14T00:38:00.763Z,100881.66
2022-10-14T00:40:45.731Z,100892.97
2022-10-14T00:43:56.191Z,100890.41
2022-10-14T00:46:49.653Z,100893.94
2022-10-14T00:49:39.268Z,100887.97
2022-10-14T00:52:24.982Z,100886.34
2022-10-14T00:55:18.615Z,100891.66
2022-10-14T00:58:03.792Z,100883.75
2022-10-14T01:00:48.979Z,100888.63
2022-10-14T01:03:34.942Z,100879.13
2022-10-14T01:06:45.099Z,100887.72
2022-10-14T01:09:36.062Z,100882.50
2022-10-14T01:12:33.377Z,100883.28
2022-10-14T01:15:33.969Z,100891.06
2022-10-14T01:18:19.229Z,100878.06
2022-10-14T01:21:17.585Z,100879.75
2022-10-14T01:24:40.101Z,100892.75
2022-10-14T01:27:32.780Z,100882.38
2022-10-14T01:30:25.235Z,100878.97
2022-10-14T01:33:20.239Z,100878.06
2022-10-14T01:36:13.618Z,100877.25
2022-10-14T01:39:07.265Z,100874.66
2022-10-14T01:42:17.084Z,100876.38
2022-10-14T01:45:12.285Z,100873.75
2022-10-14T01:48:00.174Z,100883.22
2022-10-14T01:50:48.019Z,100883.19
2022-10-14T01:53:38.458Z,100873.75
2022-10-14T01:56:24.492Z,100867.78
2022-10-14T01:59:12.413Z,100874.66
2022-10-14T02:01:57.489Z,100865.94
2022-10-14T02:04:42.779Z,100863.34
2022-10-14T02:07:42.308Z,100868.47
2022-10-14T02:10:50.941Z,100871.00
2022-10-14T02:13:53.688Z,100862.31
2022-10-14T02:16:48.033Z,100866.56
2022-10-14T02:19:57.686Z,100864.81
2022-10-14T02:22:48.201Z,100863.00
2022-10-14T02:25:39.265Z,100856.94
2022-10-14T02:28:27.514Z,100851.75
2022-10-14T02:31:16.764Z,100849.13
2022-10-14T02:34:07.152Z,100849.97
2022-10-14T02:36:54.453Z,100843.94
2022-10-14T02:39:44.132Z,100840.53
2022-10-14T02:42:29.403Z,100843.25
2022-10-14T02:45:14.565Z,100837.06
2022-10-14T02:47:59.498Z,100843.16
2022-10-14T02:50:44.470Z,100844.13
2022-10-14T02:53:29.556Z,100837.06
2022-10-14T02:56:14.645Z,100837.06
2022-10-14T02:58:59.713Z,100839.56
2022-10-14T03:01:44.719Z,100834.44
2022-10-14T03:04:29.623Z,100830.09
2022-10-14T03:07:14.628Z,100830.16
2022-10-14T03:09:59.531Z,100824.97
2022-10-14T03:12:45.105Z,100823.44
2022-10-14T03:15:30.376Z,100829.50
2022-10-14T03:18:15.891Z,100819.19
2022-10-14T03:21:01.060Z,100816.81
2022-10-14T03:23:46.452Z,100811.72
2022-10-14T03:26:31.466Z,100810.72
2022-10-14T03:29:16.564Z,100817.69
2022-10-14T03:32:03.019Z,100819.47
2022-10-14T03:34:47.967Z,100810.78
2022-10-14T03:37:32.806Z,100803.13
2022-10-14T03:40:17.804Z,100805.81
2022-10-14T03:43:02.686Z,100794.63
2022-10-14T03:45:47.760Z,100799.75
2022-10-14T03:48:33.207Z,100788.53
2022-10-14T03:51:18.265Z,100797.22
2022-10-14T03:54:03.203Z,100780.00
2022-10-14T03:56:48.604Z,100781.75
2022-10-14T03:59:33.657Z,100773.19
2022-10-14T04:02:18.793Z,100768.81
2022-10-14T04:05:04.340Z,100772.25
2022-10-14T04:07:49.544Z,100778.91
2022-10-14T04:10:34.433Z,100784.81
2022-10-14T04:13:20.105Z,100780.44
2022-10-14T04:16:06.710Z,100764.81
2022-10-14T04:18:51.585Z,100786.34
2022-10-14T04:21:36.535Z,100781.19
2022-10-14T04:24:21.482Z,100776.91
2022-10-14T04:27:06.378Z,100781.25
2022-10-14T04:29:52.298Z,100777.03
2022-10-14T04:32:37.572Z,100782.06
2022-10-14T04:35:22.772Z,100782.84
2022-10-14T04:38:08.058Z,100774.34
2022-10-14T04:40:53.299Z,100777.88
2022-10-14T04:43:38.812Z,100781.41
2022-10-14T04:46:23.839Z,100773.66
2022-10-14T04:49:09.660Z,100779.75
2022-10-14T04:51:54.759Z,100773.72
2022-10-14T04:54:39.838Z,100766.94
2022-10-14T04:57:24.869Z,100760.91
2022-10-14T05:00:12.031Z,100763.47
2022-10-14T05:02:57.198Z,100767.72
2022-10-14T05:05:42.222Z,100770.31
2022-10-14T05:08:27.073Z,100754.66
2022-10-14T05:11:12.121Z,100755.53
2022-10-14T05:13:57.398Z,100754.69
2022-10-14T05:16:42.701Z,100754.78
2022-10-14T05:19:28.120Z,100760.75
2022-10-14T05:22:13.071Z,100746.09
2022-10-14T05:25:00.098Z,100758.25
2022-10-14T05:27:45.262Z,100760.00
2022-10-14T05:30:34.520Z,100750.50
2022-10-14T05:33:20.156Z,100760.88
2022-10-14T05:36:05.627Z,100752.22
2022-10-14T05:38:50.968Z,100758.31
2022-10-14T05:41:35.736Z,100760.88
2022-10-14T05:44:21.126Z,100758.28
2022-10-14T05:47:06.089Z,100763.47
2022-10-14T05:49:51.354Z,100756.59
2022-10-14T05:52:36.514Z,100748.03
2022-10-14T05:55:21.665Z,100747.19
2022-10-14T05:58:07.736Z,100747.94
2022-10-14T06:00:55.832Z,100739.28
2022-10-14T06:03:41.318Z,100741.06
2022-10-14T06:06:29.074Z,100744.50
2022-10-14T06:09:14.572Z,100744.50
2022-10-14T06:11:59.633Z,100742.81
2022-10-14T06:14:45.326Z,100739.34
2022-10-14T06:17:30.317Z,100738.50
2022-10-14T06:20:15.423Z,100736.78
2022-10-14T06:23:01.733Z,100735.91
2022-10-14T06:25:47.142Z,100728.16
2022-10-14T06:28:32.993Z,100727.25
2022-10-14T06:31:18.149Z,100726.38
2022-10-14T06:34:05.937Z,100716.88
2022-10-14T06:36:51.120Z,100720.22
2022-10-14T06:39:36.243Z,100728.09
2022-10-14T06:42:21.246Z,100726.38
2022-10-14T06:45:07.049Z,100722.94
2022-10-14T06:47:52.359Z,100717.72
2022-10-14T06:50:37.459Z,100720.25
2022-10-14T06:53:22.984Z,100712.44
2022-10-14T06:56:09.261Z,100720.31
2022-10-14T06:58:55.263Z,100716.81
2022-10-14T07:01:40.460Z,100718.50
2022-10-14T07:04:25.689Z,100721.13
2022-10-14T07:07:11.000Z,100719.38
2022-10-14T07:09:56.082Z,100719.38
2022-10-14T07:12:41.390Z,100724.72
2022-10-14T07:15:26.909Z,100722.91
2022-10-14T07:18:12.232Z,100719.41
2022-10-14T07:21:01.851Z,100722.09
2022-10-14T07:23:47.479Z,100726.50
2022-10-14T07:26:33.181Z,100722.22
2022-10-14T07:29:18.383Z,100725.69
2022-10-14T07:32:03.936Z,100727.44
2022-10-14T07:34:49.358Z,100716.06
2022-10-14T07:37:34.918Z,100720.41
2022-10-14T07:40:20.560Z,100709.19
2022-10-14T07:43:05.767Z,100723.22
2022-10-14T07:45:51.403Z,100712.81
2022-10-14T07:48:52.537Z,100712.09
2022-10-14T07:51:42.387Z,100703.47
2022-10-14T07:54:27.869Z,100709.47
2022-10-14T07:57:12.963Z,100703.31
2022-10-14T07:59:58.608Z,100702.59
2022-10-14T08:02:43.996Z,100699.97
2022-10-14T08:05:44.355Z,100700.91
2022-10-14T08:08:30.239Z,100697.41
2022-10-14T08:11:19.810Z,100697.53
2022-10-14T08:14:05.990Z,100692.25
2022-10-14T08:16:51.148Z,100689.72
2022-10-14T08:19:36.588Z,100684.50
2022-10-14T08:22:21.993Z,100690.59
2022-10-14T08:25:08.116Z,100689.75
2022-10-14T08:27:54.524Z,100687.13
2022-10-14T08:30:43.062Z,100677.59
2022-10-14T08:33:28.365Z,100673.19
2022-10-14T08:36:13.603Z,100671.50
2022-10-14T08:38:59.493Z,100677.69
2022-10-14T08:42:23.396Z,100670.75
2022-10-14T08:45:15.014Z,100661.31
2022-10-14T08:48:02.855Z,100657.81
2022-10-14T08:50:55.945Z,100663.03
2022-10-14T08:53:48.363Z,100653.56
2022-10-14T08:56:36.601Z,100658.78
2022-10-14T08:59:25.134Z,100662.28
2022-10-14T09:02:30.789Z,100653.63
2022-10-14T09:05:24.634Z,100655.38
2022-10-14T09:08:15.615Z,100638.88
2022-10-14T09:11:01.249Z,100636.34
2022-10-14T09:14:01.051Z,100633.72
2022-10-14T09:16:51.864Z,100618.09
2022-10-14T09:19:50.374Z,100617.25
2022-10-14T09:22:35.903Z,100611.22
2022-10-14T09:25:21.348Z,100611.19
2022-10-14T09:28:06.315Z,100602.56
2022-10-14T09:30:54.357Z,100606.03
2022-10-14T09:33:42.431Z,100606.06
2022-10-14T09:36:28.062Z,100583.50
2022-10-14T09:39:14.157Z,100573.94
2022-10-14T09:42:00.515Z,100572.25
2022-10-14T09:48:00.648Z,100574.84
2022-10-14T09:50:55.399Z,100567.03
2022-10-14T09:53:45.430Z,100561.81
2022-10-14T09:56:40.726Z,100562.69
2022-10-14T09:59:28.425Z,100556.59
2022-10-14T10:02:37.227Z,100547.94
2022-10-14T10:05:32.558Z,100547.91
2022-10-14T10:08:18.858Z,100534.91
2022-10-14T10:11:11.436Z,100537.47
2022-10-14T10:13:58.109Z,100539.22
2022-10-14T10:16:43.803Z,100533.16
2022-10-14T10:19:33.539Z,100531.34
2022-10-14T10:22:21.857Z,100517.31
2022-10-14T10:25:10.209Z,100501.59
2022-10-14T10:27:59.800Z,100474.47
2022-10-14T10:31:12.066Z,100468.16
2022-10-14T10:34:10.297Z,100452.56
2022-10-14T10:37:16.887Z,100472.53
2022-10-14T10:40:08.023Z,100465.47
2022-10-14T10:43:10.677Z,100452.50
2022-10-14T10:46:30.894Z,100444.09
2022-10-14T10:49:23.479Z,100460.75
2022-10-14T10:52:43.180Z,100463.34
2022-10-14T10:55:51.674Z,100466.78
2022-10-14T10:59:00.116Z,100453.78
2022-10-14T11:02:13.242Z,100456.38
2022-10-14T11:05:46.560Z,100455.22
2022-10-14T11:08:55.449Z,100447.25
2022-10-14T11:12:15.415Z,100438.38
2022-10-14T11:15:33.512Z,100435.75
2022-10-14T11:18:34.043Z,100428.22
2022-10-14T11:21:37.434Z,100419.81
2022-10-14T11:24:36.846Z,100417.41
2022-10-14T11:27:41.303Z,100430.75
2022-10-14T11:30:48.294Z,100433.44
2022-10-14T11:33:57.155Z,100412.53
2022-10-14T11:37:12.970Z,100403.75
2022-10-14T11:40:06.591Z,100382.00
2022-10-14T11:43:12.285Z,100386.34
2022-10-14T11:46:10.802Z,100376.78
2022-10-14T11:49:12.957Z,100380.22
2022-10-14T11:52:08.970Z,100389.69
2022-10-14T11:55:01.730Z,100375.66
2022-10-14T11:57:59.091Z,100380.75
2022-10-14T12:00:49.329Z,100391.31
2022-10-14T12:04:10.640Z,100376.63
2022-10-14T12:07:15.461Z,100385.28
2022-10-14T12:10:06.676Z,100379.34
2022-10-14T12:12:54.536Z,100373.31
2022-10-14T12:15:42.869Z,100381.94
2022-10-14T12:18:30.989Z,100367.91
2022-10-14T12:21:28.242Z,100353.03
2022-10-14T12:24:20.564Z,100357.34
2022-10-14T12:27:09.798Z,100346.03
2022-10-14T12:29:55.655Z,100338.06
2022-10-14T12:33:00.703Z,100332.47
2022-10-14T12:35:56.813Z,100325.38
2022-10-14T12:38:42.280Z,100327.13
2022-10-14T12:41:40.281Z,100342.34
2022-10-14T12:44:35.314Z,100340.56
2022-10-14T12:47:27.186Z,100331.84
2022-10-14T12:50:15.200Z,100328.28
2022-10-14T12:53:02.971Z,100315.28
2022-10-14T12:55:53.519Z,100316.09
2022-10-14T12:58:42.631Z,100323.81
2022-10-14T13:01:31.094Z,100326.34
2022-10-14T13:04:20.253Z,100312.44
2022-10-14T13:07:39.039Z,100317.69
2022-10-14T13:10:47.734Z,100303.97
2022-10-14T13:13:38.951Z,100319.72
2022-10-14T13:16:23.730Z,100316.22
2022-10-14T13:19:34.738Z,100318.75
2022-10-14T13:22:33.156Z,100305.72
2022-10-14T13:25:20.735Z,100307.63
2022-10-14T13:28:31.964Z,100325.22
2022-10-14T13:31:38.401Z,100322.72
2022-10-14T13:34:34.715Z,100314.03
2022-10-14T13:37:32.063Z,100310.53
2022-10-14T13:40:24.308Z,100301.81
2022-10-14T13:43:19.980Z,100293.88
2022-10-14T13:46:34.640Z,100276.47
2022-10-14T13:49:37.535Z,100279.97
2022-10-14T13:52:26.492Z,100266.84
2022-10-14T13:55:21.026Z,100265.94
2022-10-14T13:58:17.988Z,100249.47
2022-10-14T14:01:05.604Z,100258.16
2022-10-14T14:03:53.630Z,100261.63
2022-10-14T14:07:02.993Z,100258.28
2022-10-14T14:09:52.300Z,100254.81
2022-10-14T14:12:42.297Z,100247.84
2022-10-14T14:15:29.362Z,100247.81
2022-10-14T14:18:43.174Z,100250.41
2022-10-14T14:21:38.477Z,100245.31
2022-10-14T14:24:25.193Z,100235.66
2022-10-14T14:27:22.399Z,100236.41
2022-10-14T14:30:23.270Z,100245.19
2022-10-14T14:33:13.622Z,100221.69
2022-10-14T14:36:01.712Z,100208.59
2022-10-14T14:39:03.294Z,100218.31
2022-10-14T14:41:53.244Z,100221.84
2022-10-14T14:44:39.542Z,100235.78
2022-10-14T14:47:27.343Z,100228.03
2022-10-14T14:50:31.941Z,100232.53
2022-10-14T14:53:24.204Z,100237.84
2022-10-14T14:56:16.242Z,100246.66
2022-10-14T14:59:21.236Z,100247.66
2022-10-14T15:02:18.420Z,100246.09
2022-10-14T15:05:09.330Z,100258.38
2022-10-14T15:07:54.428Z,100254.13
2022-10-14T15:10:47.344Z,100263.72
2022-10-14T15:13:38.721Z,100265.53
2022-10-14T15:16:51.951Z,100264.81
2022-10-14T15:19:38.642Z,100258.81
2022-10-14T15:22:30.293Z,100256.28
2022-10-14T15:25:32.156Z,100260.63
2022-10-14T15:28:31.658Z,100266.75
2022-10-14T15:31:16.951Z,100255.50
2022-10-14T15:34:03.826Z,100250.28
2022-10-14T15:36:51.191Z,100242.47
2022-10-14T15:39:36.510Z,100237.22
2022-10-14T15:42:21.896Z,100239.81
2022-10-14T15:45:07.850Z,100239.84
2022-10-14T15:50:44.727Z,100230.31
2022-10-14T15:53:29.809Z,100229.47
2022-10-14T15:56:15.253Z,100229.47
2022-10-14T15:59:00.860Z,100231.22
2022-10-14T16:01:47.326Z,100226.03
2022-10-14T16:04:32.635Z,100232.16
2022-10-14T16:07:17.871Z,100232.19
2022-10-14T16:10:03.581Z,100229.59
2022-10-14T16:12:49.440Z,100226.16
2022-10-14T16:15:43.514Z,100226.19
2022-10-14T16:18:28.194Z,100227.97
2022-10-14T16:21:15.929Z,100221.03
2022-10-14T16:24:02.219Z,100226.28
2022-10-14T16:26:48.459Z,100221.94
2022-10-14T16:29:33.413Z,100219.34
2022-10-14T16:32:18.806Z,100222.78
2022-10-14T16:35:05.917Z,100215.84
2022-10-14T16:37:51.090Z,100220.19
2022-10-14T16:40:36.969Z,100219.34
2022-10-14T16:43:22.263Z,100213.28
2022-10-14T16:46:10.434Z,100211.50
2022-10-14T16:48:58.176Z,100209.78
2022-10-14T16:51:44.823Z,100208.91
2022-10-14T16:54:30.183Z,100200.25
2022-10-14T16:57:15.659Z,100206.31
2022-10-14T17:00:01.075Z,100204.56
2022-10-14T17:02:46.399Z,100193.34
2022-10-14T17:05:32.100Z,100195.94
2022-10-14T17:08:18.417Z,100189.88
2022-10-14T17:11:03.453Z,100201.16
2022-10-14T17:13:53.109Z,100206.34
2022-10-14T17:16:38.043Z,100207.22
2022-10-14T17:19:22.963Z,100209.84
2022-10-14T17:22:08.706Z,100202.91
2022-10-14T17:24:53.807Z,100209.88
2022-10-14T17:27:38.730Z,100216.81
2022-10-14T17:30:24.179Z,100209.88
2022-10-14T17:33:09.551Z,100197.72
2022-10-14T17:35:58.091Z,100201.19
2022-10-14T17:38:43.108Z,100203.78
2022-10-14T17:41:33.822Z,100203.78
2022-10-14T17:44:19.484Z,100204.69
2022-10-14T17:47:05.183Z,100202.06
2022-10-14T17:49:50.186Z,100197.75
2022-10-14T17:52:35.224Z,100201.22
2022-10-14T17:55:20.533Z,100198.59
2022-10-14T17:58:08.473Z,100197.72
2022-10-14T18:00:53.580Z,100198.56
2022-10-14T18:03:41.761Z,100195.09
2022-10-14T18:06:32.433Z,100187.28
2022-10-14T18:09:18.674Z,100200.31
2022-10-14T18:12:08.740Z,100199.47
2022-10-14T18:14:55.188Z,100189.06
2022-10-14T18:17:44.204Z,100189.91
2022-10-14T18:20:29.141Z,100174.31
2022-10-14T18:23:14.803Z,100179.53
2022-10-14T18:26:06.272Z,100183.84
2022-10-14T18:28:56.412Z,100178.63
2022-10-14T18:31:41.920Z,100180.38
2022-10-14T18:34:27.301Z,100176.03
2022-10-14T18:37:12.686Z,100181.19
2022-10-14T18:39:57.866Z,100173.41
2022-10-14T18:42:43.188Z,100160.38
2022-10-14T18:45:28.170Z,100164.75
2022-10-14T18:48:13.496Z,100174.25
2022-10-14T18:51:00.007Z,100173.41
2022-10-14T18:53:47.876Z,100163.84
2022-10-14T18:56:35.678Z,100174.25
2022-10-14T18:59:22.978Z,100163.88
2022-10-14T19:02:12.556Z,100156.97
2022-10-14T19:04:57.505Z,100161.28
2022-10-14T19:07:42.915Z,100163.03
2022-10-14T19:10:28.119Z,100150.00
2022-10-14T19:13:13.254Z,100156.06
2022-10-14T19:16:06.529Z,100156.06
2022-10-14T19:18:56.509Z,100147.38
2022-10-14T19:21:42.276Z,100150.84
2022-10-14T19:24:27.263Z,100154.38
2022-10-14T19:27:12.165Z,100155.25
2022-10-14T19:29:57.621Z,100143.13
2022-10-14T19:32:42.647Z,100152.63
2022-10-14T19:35:27.634Z,100144.81
2022-10-14T19:38:13.567Z,100145.66
2022-10-14T19:41:03.936Z,100141.34
2022-10-14T19:43:49.190Z,100133.53
2022-10-14T19:46:34.669Z,100119.66
2022-10-14T19:49:20.120Z,100118.78
2022-10-14T19:52:05.828Z,100121.41
2022-10-14T19:54:51.347Z,100133.53
2022-10-14T19:57:36.614Z,100130.09
2022-10-14T20:00:22.430Z,100122.34
2022-10-14T20:03:08.021Z,100144.00
2022-10-14T20:06:00.106Z,100131.03
2022-10-14T20:08:45.142Z,100133.63
2022-10-14T20:11:30.517Z,100126.72
2022-10-14T20:14:15.901Z,100138.84
2022-10-14T20:17:00.856Z,100138.84
2022-10-14T20:19:45.938Z,100136.28
2022-10-14T20:22:34.049Z,100130.25
2022-10-14T20:25:18.908Z,100118.06
2022-10-14T20:28:04.292Z,100112.88
2022-10-14T20:30:49.632Z,100111.16
2022-10-14T20:33:34.941Z,100100.75
2022-10-14T20:36:21.907Z,100100.78
2022-10-14T20:39:10.190Z,100104.28
2022-10-14T20:41:55.144Z,100113.75
2022-10-14T20:44:40.619Z,100106.84
2022-10-14T20:47:25.790Z,100112.03
2022-10-14T20:50:11.128Z,100113.78
2022-10-14T20:52:56.372Z,100115.53
2022-10-14T20:55:41.226Z,100126.81
2022-10-14T20:58:26.653Z,100116.41
2022-10-14T21:01:16.212Z,100106.84
2022-10-14T21:04:04.303Z,100109.41
2022-10-14T21:06:49.211Z,100114.63
2022-10-14T21:09:34.141Z,100125.97
2022-10-14T21:12:19.606Z,100123.41
2022-10-14T21:15:05.281Z,100131.22
2022-10-14T21:17:50.654Z,100122.56
2022-10-14T21:20:35.604Z,100120.84
2022-10-14T21:23:20.951Z,100118.19
2022-10-14T21:26:06.077Z,100122.47
2022-10-14T21:28:51.635Z,100124.19
2022-10-14T21:31:36.733Z,100117.28
2022-10-14T21:34:21.932Z,100110.34
2022-10-14T21:37:07.117Z,100118.97
2022-10-14T21:39:52.035Z,100108.66
2022-10-14T21:42:37.301Z,100102.63
2022-10-14T21:45:22.665Z,100095.66
2022-10-14T21:48:07.741Z,100079.16
2022-10-14T21:51:03.556Z,100073.03
2022-10-14T21:53:48.552Z,100071.41
2022-10-14T21:56:33.530Z,100084.34
2022-10-14T21:59:18.482Z,100084.25
2022-10-14T22:02:09.290Z,100082.63
2022-10-14T22:04:54.429Z,100080.91
2022-10-14T22:07:39.530Z,100084.44
2022-10-14T22:10:24.529Z,100095.69
2022-10-14T22:13:09.543Z,100099.94
2022-10-14T22:15:54.942Z,100100.91
2022-10-14T22:18:40.428Z,100095.75
2022-10-14T22:21:27.312Z,100103.53
2022-10-14T22:24:13.396Z,100111.31
2022-10-14T22:26:58.507Z,100104.41
2022-10-14T22:29:43.527Z,100113.91
2022-10-14T22:32:28.743Z,100103.50
2022-10-14T22:35:13.698Z,100094.81
2022-10-14T22:37:58.742Z,100079.19
2022-10-14T22:40:43.539Z,100083.50
2022-10-14T22:43:28.539Z,100077.47
2022-10-14T22:46:15.152Z,100079.31
2022-10-14T22:49:00.626Z,100088.84
2022-10-14T22:51:45.911Z,100076.72
2022-10-14T22:54:31.096Z,100083.63
2022-10-14T22:57:16.045Z,100081.00
2022-10-14T23:00:03.834Z,100080.16
2022-10-14T23:02:50.106Z,100067.19
2022-10-14T23:05:35.321Z,100077.59
2022-10-14T23:08:20.060Z,100068.97
2022-10-14T23:11:06.565Z,100071.56
2022-10-14T23:13:51.963Z,100071.47
2022-10-14T23:16:38.970Z,100073.28
2022-10-14T23:19:24.015Z,100074.97
2022-10-14T23:22:09.451Z,100065.44
2022-10-14T23:24:54.282Z,100055.97
2022-10-14T23:27:39.723Z,100055.13
2022-10-14T23:30:25.225Z,100054.28
2022-10-14T23:33:10.559Z,100056.03
2022-10-14T23:35:55.484Z,100060.38
2022-10-14T23:38:40.886Z,100061.25
2022-10-14T23:41:25.895Z,100062.09
2022-10-14T23:44:11.450Z,100056.03
2022-10-14T23:46:56.861Z,100059.53
2022-10-14T23:49:41.920Z,100066.44
2022-10-14T23:52:26.941Z,100057.81
2022-10-14T23:55:12.652Z,100066.44
2022-10-14T23:57:57.822Z,100060.38
